Time;durP1;ratioP1;P1;durP2;ratioP2;P2;SDS_P1;SDS_P2;PMS_P1;PMS_P2;Temp;Humidity;BMP_temperature;BMP_pressure;BME280_temperature;BME280_humidity;BME280_pressure;Samples;Min_cycle;Max_cycle;Signal;HPM_P1;HPM_P2
2021/12/28 00:01:32;;;;;;;;;;;;;;;;;;;;;
2021/12/28 00:04:12;;;;;;;15.35;11.15;;;8.40;99.90;;;;;;6188555;23;20151;-88
2021/12/28 00:06:40;;;;;;;14.05;10.98;;;8.40;99.90;;;;;;6186340;23;20005;-89
2021/12/28 00:09:31;;;;;;;12.30;10.48;;;8.50;99.90;;;;;;6162183;23;20005;-89
2021/12/28 00:12:09;;;;;;;;;;;;;;;;;;;;;
2021/12/28 00:14:48;;;;;;;;;;;;;;;;;;;;;
2021/12/28 00:20:24;;;;;;;15.30;9.65;;;8.50;99.90;;;;;;6185587;23;20063;-89
2021/12/28 00:23:37;;;;;;;14.65;10.10;;;8.50;99.90;;;;;;6187024;23;20493;-88
2021/12/28 00:26:11;;;;;;;12.65;9.50;;;8.50;99.90;;;;;;6171397;23;20036;-88
2021/12/28 00:28:47;;;;;;;13.90;8.80;;;8.40;99.90;;;;;;6186012;23;20013;-89
2021/12/28 00:31:24;;;;;;;16.05;10.00;;;8.40;99.90;;;;;;6186710;23;19997;-88
2021/12/28 00:33:55;;;;;;;16.92;9.18;;;8.40;99.90;;;;;;6162595;23;20005;-88
2021/12/28 00:36:30;;;;;;;18.08;9.00;;;8.40;99.90;;;;;;6186484;23;20005;-89
2021/12/28 00:39:10;;;;;;;;;;;;;;;;;;;;;
2021/12/28 00:41:44;;;;;;;13.52;7.95;;;8.40;99.90;;;;;;6187537;23;20084;-88
2021/12/28 00:44:18;;;;;;;13.07;8.23;;;8.40;99.90;;;;;;6186303;23;20020;-88
2021/12/28 00:46:48;;;;;;;15.40;8.18;;;8.40;99.90;;;;;;6186850;23;19998;-88
2021/12/28 00:49:25;;;;;;;14.73;8.35;;;8.40;99.90;;;;;;6162690;23;20013;-88
2021/12/28 00:51:58;;;;;;;14.82;8.02;;;8.40;99.90;;;;;;6186340;23;20005;-88
2021/12/28 00:54:34;;;;;;;15.02;8.30;;;8.30;99.90;;;;;;6162114;23;20013;-89
2021/12/28 00:57:01;;;;;;;15.75;8.52;;;8.30;99.90;;;;;;6186536;23;20484;-88
2021/12/28 01:00:04;;;;;;;;;;;;;;;;;;;;;
2021/12/28 01:02:42;;;;;;;;;;;;;;;;;;;;;
2021/12/28 01:05:32;;;;;;;;;;;;;;;;;;;;;
2021/12/28 01:08:04;;;;;;;13.68;8.20;;;8.20;99.90;;;;;;6213917;23;20001;-88
2021/12/28 01:10:52;;;;;;;;;;;;;;;;;;;;;
2021/12/28 01:13:34;;;;;;;12.57;8.52;;;8.20;99.90;;;;;;6203640;23;20013;-88
2021/12/28 01:16:32;;;;;;;13.20;7.82;;;8.20;99.90;;;;;;6186870;23;20335;-88
2021/12/28 01:19:02;;;;;;;12.85;8.38;;;8.10;99.90;;;;;;6168074;23;20005;-89
2021/12/28 01:22:01;;;;;;;;;;;;;;;;;;;;;
2021/12/28 01:24:33;;;;;;;12.05;7.53;;;8.10;99.90;;;;;;6186778;23;20092;-88
2021/12/28 01:27:00;;;;;;;;;;;8.10;99.90;;;;;;6162383;23;20032;-89
2021/12/28 01:29:32;;;;;;;13.43;6.85;;;8.10;99.90;;;;;;6185672;23;19912;-88
2021/12/28 01:32:10;;;;;;;13.77;7.40;;;8.00;99.90;;;;;;6185750;23;20039;-89
2021/12/28 01:34:56;;;;;;;12.05;6.63;;;8.00;99.90;;;;;;6185856;23;20004;-89
2021/12/28 01:37:27;;;;;;;14.75;6.47;;;8.00;99.90;;;;;;6162233;23;20055;-89
2021/12/28 01:40:01;;;;;;;11.57;7.15;;;8.00;99.90;;;;;;6161822;23;20028;-88
2021/12/28 01:42:32;;;;;;;13.23;6.75;;;8.00;99.90;;;;;;6186149;23;20011;-88
2021/12/28 01:45:38;;;;;;;11.63;6.55;;;8.00;99.90;;;;;;6161832;23;20012;-89
2021/12/28 01:48:13;;;;;;;11.88;6.10;;;8.00;99.90;;;;;;6185089;23;20431;-88
2021/12/28 01:50:45;;;;;;;9.43;6.13;;;8.00;99.90;;;;;;6185842;23;20445;-89
2021/12/28 01:53:16;;;;;;;12.43;6.28;;;8.00;99.90;;;;;;6185759;23;20072;-89
2021/12/28 01:55:55;;;;;;;13.32;6.93;;;8.00;99.90;;;;;;6185757;23;20000;-89
2021/12/28 01:58:21;;;;;;;8.15;5.47;;;8.00;99.90;;;;;;6162994;23;20095;-89
2021/12/28 02:01:19;;;;;;;10.95;5.55;;;8.00;99.90;;;;;;6185538;23;20005;-88
2021/12/28 02:03:51;;;;;;;12.75;6.18;;;8.10;99.90;;;;;;6185178;23;20005;-89
2021/12/28 02:06:29;;;;;;;;;;;;;;;;;;;;;
2021/12/28 02:09:05;;;;;;;11.07;6.03;;;8.00;99.90;;;;;;6187519;23;20511;-90
2021/12/28 02:12:00;;;;;;;;;;;;;;;;;;;;;
2021/12/28 02:14:26;;;;;;;15.10;6.43;;;8.10;99.90;;;;;;6187257;23;20072;-89
2021/12/28 02:17:02;;;;;;;11.70;6.07;;;8.00;99.90;;;;;;6185466;23;20008;-90
2021/12/28 02:19:33;;;;;;;11.55;5.95;;;8.00;99.90;;;;;;6185968;23;20432;-88
2021/12/28 02:22:30;;;;;;;;;;;;;;;;;;;;;
2021/12/28 02:25:12;;;;;;;;;;;;;;;;;;;;;
2021/12/28 02:27:49;;;;;;;15.27;6.07;;;8.00;99.90;;;;;;6188097;23;20079;-89
2021/12/28 02:30:23;;;;;;;11.55;6.20;;;8.00;99.90;;;;;;6186953;23;20028;-89
2021/12/28 02:32:57;;;;;;;14.82;6.18;;;8.10;99.90;;;;;;6187611;23;20036;-88
2021/12/28 02:35:26;;;;;;;13.60;6.68;;;8.00;99.90;;;;;;6176450;23;19986;-88
2021/12/28 02:38:08;;;;;;;13.55;6.30;;;8.00;99.90;;;;;;6212337;23;20013;-89
2021/12/28 02:40:44;;;;;;;10.90;6.13;;;8.00;99.90;;;;;;6189863;23;20020;-89
2021/12/28 02:43:22;;;;;;;17.35;6.45;;;8.00;99.90;;;;;;6212834;23;20025;-87
2021/12/28 02:45:58;;;;;;;14.85;6.25;;;8.00;99.90;;;;;;6210260;23;20001;-87
2021/12/28 02:48:47;;;;;;;15.07;6.20;;;8.00;99.90;;;;;;6188587;23;20419;-89
2021/12/28 02:51:18;;;;;;;13.65;6.30;;;8.00;99.90;;;;;;6186135;23;20425;-89
2021/12/28 02:54:00;;;;;;;;;;;;;;;;;;;;;
2021/12/28 02:56:46;;;;;;;13.43;6.43;;;8.00;99.90;;;;;;6186679;23;20518;-88
2021/12/28 02:59:19;;;;;;;16.23;6.38;;;8.00;99.90;;;;;;6185735;23;20001;-90
2021/12/28 03:02:07;;;;;;;14.80;5.93;;;8.00;99.90;;;;;;6159762;23;20076;-89
2021/12/28 03:04:39;;;;;;;15.95;7.25;;;7.90;99.90;;;;;;6185532;23;20335;-89
2021/12/28 03:07:33;;;;;;;12.88;5.75;;;7.90;99.90;;;;;;6137023;23;20005;-89
2021/12/28 03:10:24;;;;;;;10.60;5.80;;;7.90;99.90;;;;;;6177790;23;20327;-89
2021/12/28 03:12:57;;;;;;;12.65;6.22;;;7.90;99.90;;;;;;6185347;23;20036;-90
2021/12/28 03:15:25;;;;;;;11.52;6.30;;;7.80;99.90;;;;;;6185400;23;20012;-89
2021/12/28 03:18:11;;;;;;;15.07;6.18;;;7.80;99.90;;;;;;6160797;23;20041;-90
2021/12/28 03:20:52;;;;;;;;;;;;;;;;;;;;;
2021/12/28 03:23:38;;;;;;;;;;;;;;;;;;;;;
2021/12/28 03:26:50;;;;;;;11.05;6.38;;;7.80;99.90;;;;;;6186747;23;20087;-89
2021/12/28 03:29:20;;;;;;;10.25;6.43;;;7.70;99.90;;;;;;6184705;23;20039;-89
2021/12/28 03:31:58;;;;;;;;;;;;;;;;;;;;;
2021/12/28 03:34:27;;;;;;;12.00;6.28;;;7.70;99.90;;;;;;6186365;23;20092;-89
2021/12/28 03:37:24;;;;;;;11.05;5.80;;;7.70;99.90;;;;;;6184356;23;20001;-89
2021/12/28 03:39:54;;;;;;;12.52;6.05;;;7.70;99.90;;;;;;6158730;23;20009;-89
2021/12/28 03:42:27;;;;;;;15.17;6.23;;;7.70;99.90;;;;;;6160457;23;20017;-88
2021/12/28 03:45:00;;;;;;;13.05;6.38;;;7.60;99.90;;;;;;6185079;23;20706;-89
2021/12/28 03:47:36;;;;;;;12.55;6.40;;;7.60;99.90;;;;;;6161168;23;20308;-89
2021/12/28 03:50:06;;;;;;;10.63;6.30;;;7.60;99.90;;;;;;6184880;23;20434;-90
2021/12/28 03:52:39;;;;;;;13.85;6.63;;;7.60;99.90;;;;;;6184540;23;20001;-89
2021/12/28 03:55:25;;;;;;;17.02;7.10;;;7.60;99.90;;;;;;6161369;23;20016;-89
2021/12/28 03:58:10;;;;;;;12.52;6.43;;;7.60;99.90;;;;;;6185140;23;19997;-89
2021/12/28 04:00:40;;;;;;;13.63;6.38;;;7.60;99.90;;;;;;6185673;23;20009;-90
2021/12/28 04:03:10;;;;;;;13.15;6.80;;;7.60;99.90;;;;;;6185126;23;20008;-89
2021/12/28 04:05:43;;;;;;;11.70;5.93;;;7.60;99.90;;;;;;6186512;23;20016;-89
2021/12/28 04:08:21;;;;;;;10.23;6.10;;;7.60;99.90;;;;;;6165461;23;20049;-89
2021/12/28 04:13:47;;;;;;;9.52;5.80;;;7.60;99.90;;;;;;6197211;23;19994;-89
2021/12/28 04:16:33;;;;;;;13.77;6.38;;;7.60;99.90;;;;;;6212368;23;20017;-88
2021/12/28 04:19:15;;;;;;;;;;;;;;;;;;;;;
2021/12/28 04:21:49;;;;;;;10.60;5.93;;;7.60;99.90;;;;;;6189097;23;20084;-89
2021/12/28 04:24:20;;;;;;;11.57;6.20;;;7.60;99.90;;;;;;6186575;23;20063;-89
2021/12/28 04:26:49;;;;;;;14.27;6.18;;;7.50;99.90;;;;;;6184801;23;20001;-90
2021/12/28 04:29:20;;;;;;;10.77;5.38;;;7.60;99.90;;;;;;6184488;23;20064;-88
2021/12/28 04:31:48;;;;;;;11.88;5.97;;;7.60;99.90;;;;;;6185135;23;20032;-90
2021/12/28 04:34:19;;;;;;;9.23;5.18;;;7.60;99.90;;;;;;6184722;23;20005;-88
2021/12/28 04:36:48;;;;;;;11.98;5.93;;;7.60;99.90;;;;;;6159786;23;20009;-89
2021/12/28 04:39:26;;;;;;;12.73;6.03;;;7.60;99.90;;;;;;6161173;23;20067;-89
2021/12/28 04:41:54;;;;;;;11.35;5.78;;;7.60;99.90;;;;;;6161959;23;20024;-88
2021/12/28 04:44:25;;;;;;;9.32;5.35;;;7.60;99.90;;;;;;6159647;23;20039;-89
2021/12/28 04:47:17;;;;;;;;;;;;;;;;;;;;;
2021/12/28 04:49:45;;;;;;;;;;;7.60;99.90;;;;;;6188372;23;20092;-89
2021/12/28 04:52:39;;;;;;;10.27;5.50;;;7.60;99.90;;;;;;6186335;23;19900;-89
2021/12/28 04:55:31;;;;;;;9.45;5.43;;;7.60;99.90;;;;;;6186194;23;20008;-89
2021/12/28 04:57:59;;;;;;;10.60;5.65;;;7.60;99.90;;;;;;6186194;23;19997;-89
2021/12/28 05:00:33;;;;;;;15.45;5.88;;;7.60;99.90;;;;;;6161635;23;20001;-90
2021/12/28 05:03:09;;;;;;;12.80;5.97;;;7.60;99.90;;;;;;6186349;23;19997;-89
2021/12/28 05:06:03;;;;;;;;;;;;;;;;;;;;;
2021/12/28 05:09:00;;;;;;;;;;;;;;;;;;;;;
2021/12/28 05:11:41;;;;;;;13.45;4.90;;;7.70;99.90;;;;;;6187187;23;20368;-88
2021/12/28 05:14:09;;;;;;;11.73;4.90;;;7.70;99.90;;;;;;6186043;23;19997;-89
2021/12/28 05:16:51;;;;;;;;;;;;;;;;;;;;;
2021/12/28 05:19:45;;;;;;;;;;;;;;;;;;;;;
2021/12/28 05:22:18;;;;;;;12.95;4.60;;;7.70;99.90;;;;;;6187050;23;20498;-88
2021/12/28 05:24:50;;;;;;;16.88;5.00;;;7.80;99.90;;;;;;6186606;23;20039;-88
2021/12/28 05:27:41;;;;;;;11.02;4.70;;;7.80;99.90;;;;;;6185936;23;19997;-89
2021/12/28 05:30:35;;;;;;;12.95;4.28;;;7.80;99.90;;;;;;6187511;23;20401;-89
2021/12/28 05:33:19;;;;;;;9.05;4.28;;;7.80;99.90;;;;;;6186812;23;20088;-89
2021/12/28 05:35:57;;;;;;;10.77;4.40;;;7.80;99.90;;;;;;6165627;23;20012;-88
2021/12/28 05:38:37;;;;;;;13.10;4.80;;;7.80;99.90;;;;;;6187059;23;20001;-88
2021/12/28 05:41:31;;;;;;;10.60;4.93;;;7.90;99.90;;;;;;6163500;23;20005;-88
2021/12/28 05:44:06;;;;;;;12.38;4.53;;;7.90;99.90;;;;;;6198076;23;19985;-89
2021/12/28 05:46:42;;;;;;;11.75;4.55;;;7.90;99.90;;;;;;6213614;23;19988;-88
2021/12/28 05:49:08;;;;;;;13.23;4.88;;;7.90;99.90;;;;;;6213563;23;20040;-89
2021/12/28 05:51:45;;;;;;;14.50;4.28;;;7.90;99.90;;;;;;6213144;23;19997;-89
2021/12/28 05:54:23;;;;;;;15.18;4.45;;;8.00;99.90;;;;;;6198742;23;20001;-91
2021/12/28 05:56:58;;;;;;;12.88;4.78;;;8.00;99.90;;;;;;6186799;23;20009;-91
2021/12/28 05:59:41;;;;;;;13.80;4.60;;;8.00;99.90;;;;;;6186271;23;20004;-90
2021/12/28 06:02:26;;;;;;;11.52;4.60;;;8.00;99.90;;;;;;6161896;23;20005;-90
2021/12/28 06:04:52;;;;;;;14.63;4.97;;;8.00;99.90;;;;;;6164230;23;20043;-90
2021/12/28 06:07:26;;;;;;;13.10;4.57;;;8.00;99.90;;;;;;6186053;23;20024;-92
2021/12/28 06:09:58;;;;;;;13.43;4.65;;;8.00;99.90;;;;;;6186301;23;20005;-90
2021/12/28 06:12:36;;;;;;;11.93;4.35;;;8.10;99.90;;;;;;6185909;23;20001;-92
2021/12/28 06:15:06;;;;;;;10.25;4.28;;;8.10;99.90;;;;;;6185981;23;20108;-92
2021/12/28 06:18:00;;;;;;;12.18;5.03;;;8.10;99.90;;;;;;6186515;23;20001;-91
2021/12/28 06:20:35;;;;;;;10.50;4.22;;;8.10;99.90;;;;;;6186268;23;20009;-90
2021/12/28 06:25:49;;;;;;;10.45;4.70;;;8.10;99.90;;;;;;6187605;23;20009;-91
2021/12/28 06:28:23;;;;;;;11.60;3.97;;;8.10;99.90;;;;;;6186218;23;20025;-91
2021/12/28 06:31:02;;;;;;;13.25;4.43;;;8.10;99.90;;;;;;6186389;23;20016;-91
2021/12/28 06:33:43;;;;;;;9.68;3.70;;;8.20;99.90;;;;;;6186269;23;20008;-92
2021/12/28 06:36:44;;;;;;;;;;;;;;;;;;;;;
2021/12/28 06:40:00;;;;;;;14.02;4.10;;;8.20;99.90;;;;;;6185682;23;20084;-91
2021/12/28 06:42:49;;;;;;;9.35;3.53;;;8.20;99.90;;;;;;6185423;23;20012;-91
2021/12/28 06:45:17;;;;;;;13.68;4.30;;;8.20;99.90;;;;;;6185012;23;20020;-91
2021/12/28 06:48:17;;;;;;;9.80;3.53;;;8.20;99.90;;;;;;6185807;23;20047;-91
2021/12/28 06:54:00;;;;;;;14.95;3.30;;;8.30;99.90;;;;;;6176340;23;20075;-91
2021/12/28 06:56:36;;;;;;;;;;;;;;;;;;;;;
2021/12/28 06:59:14;;;;;;;10.57;3.38;;;8.30;99.90;;;;;;6187351;23;20080;-93
2021/12/28 07:02:04;;;;;;;12.07;3.63;;;8.30;99.90;;;;;;6187382;23;20055;-92
2021/12/28 07:04:33;;;;;;;8.68;3.53;;;8.30;99.90;;;;;;6186273;23;20020;-90
2021/12/28 07:07:10;;;;;;;13.82;3.60;;;8.30;99.90;;;;;;6185316;23;20487;-89
2021/12/28 07:09:50;;;;;;;17.15;3.95;;;8.30;99.90;;;;;;6185726;23;20043;-91
2021/12/28 07:12:19;;;;;;;11.63;4.32;;;8.30;99.90;;;;;;6163343;23;20016;-91
2021/12/28 07:14:46;;;;;;;12.93;5.03;;;8.40;99.90;;;;;;6187171;23;20450;-89
2021/12/28 07:17:12;;;;;;;12.15;3.83;;;8.30;99.90;;;;;;6193584;23;19977;-88
2021/12/28 07:19:46;;;;;;;10.45;3.75;;;8.40;99.90;;;;;;6212387;23;19992;-89
2021/12/28 07:22:12;;;;;;;12.25;3.75;;;8.40;99.90;;;;;;6213175;23;19989;-89
2021/12/28 07:24:48;;;;;;;14.57;3.40;;;8.40;99.90;;;;;;6212694;23;20029;-89
2021/12/28 07:27:19;;;;;;;8.40;3.22;;;8.50;99.90;;;;;;6201081;23;19997;-89
2021/12/28 07:29:47;;;;;;;11.45;3.63;;;8.50;99.90;;;;;;6185410;23;20100;-88
2021/12/28 07:32:15;;;;;;;11.05;3.45;;;8.40;99.90;;;;;;6161153;23;20013;-88
2021/12/28 07:34:41;;;;;;;8.23;3.22;;;8.50;99.90;;;;;;6186009;23;20092;-89
2021/12/28 07:37:33;;;;;;;9.93;2.72;;;8.50;99.90;;;;;;6186570;23;20003;-91
2021/12/28 07:39:59;;;;;;;7.90;3.08;;;8.50;99.90;;;;;;6163498;23;20391;-89
2021/12/28 07:42:42;;;;;;;8.25;2.90;;;8.50;99.90;;;;;;6186732;23;20004;-89
2021/12/28 07:45:12;;;;;;;13.00;4.40;;;8.50;99.90;;;;;;6185312;23;20063;-88
2021/12/28 07:47:41;;;;;;;13.25;4.15;;;8.50;99.90;;;;;;6184672;23;20103;-89
2021/12/28 07:50:18;;;;;;;11.80;3.58;;;8.50;99.90;;;;;;6184386;23;20012;-89
2021/12/28 07:52:49;;;;;;;10.48;3.78;;;8.50;99.90;;;;;;6185047;23;20386;-90
2021/12/28 07:55:16;;;;;;;;;;;8.50;99.90;;;;;;6184593;23;20001;-90
2021/12/28 07:57:44;;;;;;;11.13;2.88;;;8.60;99.90;;;;;;6184825;23;19911;-89
2021/12/28 08:00:15;;;;;;;11.98;3.40;;;8.50;99.90;;;;;;6184545;23;20005;-90
2021/12/28 08:02:43;;;;;;;11.50;3.22;;;8.50;99.90;;;;;;6184805;23;20005;-89
2021/12/28 08:05:18;;;;;;;8.98;3.40;;;8.50;99.90;;;;;;6184856;23;20013;-88
2021/12/28 08:07:46;;;;;;;10.77;2.90;;;8.60;99.90;;;;;;6185021;23;20001;-89
2021/12/28 08:10:14;;;;;;;8.82;2.60;;;8.60;99.90;;;;;;6186084;23;20008;-88
2021/12/28 08:12:46;;;;;;;11.40;2.88;;;8.70;99.90;;;;;;6184680;23;20032;-89
2021/12/28 08:15:28;;;;;;;9.00;3.08;;;8.70;99.90;;;;;;6184376;23;20038;-87
2021/12/28 08:18:21;;;;;;;7.50;3.00;;;8.70;99.90;;;;;;6164116;23;20450;-89
2021/12/28 08:20:57;;;;;;;7.10;2.67;;;8.70;99.90;;;;;;6185573;23;20096;-91
2021/12/28 08:23:32;;;;;;;8.50;3.08;;;8.70;99.90;;;;;;6161851;23;20012;-91
2021/12/28 08:26:16;;;;;;;9.23;3.03;;;8.70;99.90;;;;;;6188886;23;20009;-92
2021/12/28 08:29:07;;;;;;;8.75;3.20;;;8.70;99.90;;;;;;6165787;23;20091;-92
2021/12/28 08:32:00;;;;;;;7.10;2.63;;;8.80;99.90;;;;;;6164654;23;20013;-89
2021/12/28 08:34:43;;;;;;;;;;;;;;;;;;;;;
2021/12/28 08:37:36;;;;;;;10.43;3.45;;;8.80;99.90;;;;;;6187696;23;20080;-90
2021/12/28 08:40:26;;;;;;;;;;;;;;;;;;;;;
2021/12/28 08:42:55;;;;;;;8.13;2.50;;;8.80;99.90;;;;;;6189041;23;20065;-89
2021/12/28 08:45:33;;;;;;;;;;;;;;;;;;;;;
2021/12/28 08:48:00;;;;;;;5.05;2.40;;;8.80;99.90;;;;;;6189968;23;20076;-88
2021/12/28 08:50:40;;;;;;;;;;;;;;;;;;;;;
2021/12/28 08:53:06;;;;;;;7.70;2.72;;;8.90;99.90;;;;;;6213415;23;19991;-86
2021/12/28 08:55:36;;;;;;;6.18;2.38;;;8.90;99.90;;;;;;6213476;23;19989;-86
2021/12/28 08:58:12;;;;;;;6.85;2.58;;;8.90;99.90;;;;;;6213442;23;20005;-87
2021/12/28 09:00:40;;;;;;;6.45;2.03;;;9.00;99.90;;;;;;6212952;23;19997;-85
2021/12/28 09:03:16;;;;;;;5.75;2.30;;;9.00;99.90;;;;;;6198165;23;20001;-84
2021/12/28 09:06:02;;;;;;;5.97;2.42;;;9.00;99.90;;;;;;6191248;23;20009;-88
2021/12/28 09:08:53;;;;;;;8.07;2.10;;;9.00;99.90;;;;;;6164931;23;20009;-87
2021/12/28 09:11:33;;;;;;;;;;;;;;;;;;;;;
2021/12/28 09:14:01;;;;;;;5.72;2.38;;;9.00;99.90;;;;;;6188002;23;20080;-89
2021/12/28 09:16:56;;;;;;;4.57;2.17;;;9.10;99.90;;;;;;6161481;23;20084;-87
2021/12/28 09:19:32;;;;;;;4.47;2.22;;;9.10;99.90;;;;;;6161549;23;20008;-88
2021/12/28 09:22:03;;;;;;;3.22;2.10;;;9.20;99.90;;;;;;6162196;23;20305;-88
2021/12/28 09:24:32;;;;;;;4.38;1.92;;;9.20;99.90;;;;;;6186224;23;20012;-89
2021/12/28 09:27:15;;;;;;;;;;;;;;;;;;;;;
2021/12/28 09:29:49;;;;;;;5.63;2.45;;;9.20;99.90;;;;;;6186132;23;20100;-90
2021/12/28 09:32:18;;;;;;;5.00;2.47;;;9.30;99.90;;;;;;6161589;23;20008;-90
2021/12/28 09:34:55;;;;;;;2.55;1.60;;;9.30;99.90;;;;;;6186239;23;20427;-91
2021/12/28 09:37:33;;;;;;;;;;;;;;;;;;;;;
2021/12/28 09:40:06;;;;;;;3.60;1.70;;;9.30;99.90;;;;;;6188083;23;20391;-92
2021/12/28 09:42:58;;;;;;;3.40;1.70;;;9.30;99.90;;;;;;6162440;23;20001;-91
2021/12/28 09:45:47;;;;;;;2.80;1.70;;;9.40;99.90;;;;;;6161902;23;20045;-92
2021/12/28 09:48:33;;;;;;;;;;;;;;;;;;;;;
2021/12/28 09:51:03;;;;;;;2.45;1.70;;;9.40;99.90;;;;;;6187830;23;20455;-91
2021/12/28 09:53:38;;;;;;;1.85;1.73;;;9.40;99.90;;;;;;6186242;23;20001;-90
2021/12/28 09:56:05;;;;;;;2.55;1.58;;;9.40;99.90;;;;;;6186685;23;20008;-90
2021/12/28 09:59:05;;;;;;;2.67;1.60;;;9.40;99.90;;;;;;6186441;23;20025;-91
2021/12/28 10:01:48;;;;;;;2.90;1.40;;;9.50;99.90;;;;;;6176181;23;20005;-89
2021/12/28 10:04:35;;;;;;;2.63;1.45;;;9.50;99.90;;;;;;6186985;23;19997;-91
2021/12/28 10:07:23;;;;;;;2.80;1.60;;;9.50;99.90;;;;;;6186824;23;20005;-91
2021/12/28 10:09:54;;;;;;;2.05;1.58;;;9.50;99.90;;;;;;6186335;23;20006;-90
2021/12/28 10:12:56;;;;;;;2.38;2.10;;;9.60;99.90;;;;;;6186434;23;20080;-91
2021/12/28 10:15:51;;;;;;;;;;;;;;;;;;;;;
2021/12/28 10:18:22;;;;;;;2.45;1.80;;;9.60;99.90;;;;;;6187591;23;20083;-92
2021/12/28 10:21:04;;;;;;;2.13;1.70;;;9.60;99.90;;;;;;6186445;23;20004;-89
2021/12/28 10:23:39;;;;;;;2.70;2.10;;;9.70;99.90;;;;;;6186505;23;19997;-90
2021/12/28 10:26:11;;;;;;;1.92;1.60;;;9.70;99.90;;;;;;6161721;23;20435;-91
2021/12/28 10:29:02;;;;;;;2.10;1.90;;;9.70;99.90;;;;;;6198294;23;19992;-89
2021/12/28 10:31:30;;;;;;;4.03;2.20;;;9.80;99.90;;;;;;6193324;23;20001;-91
2021/12/28 10:34:11;;;;;;;2.03;1.83;;;9.80;99.90;;;;;;6213035;23;20005;-90
2021/12/28 10:36:43;;;;;;;2.65;1.98;;;9.80;99.90;;;;;;6210896;23;20013;-90
2021/12/28 10:39:18;;;;;;;2.42;1.73;;;9.80;99.90;;;;;;6195396;23;20005;-92
2021/12/28 10:41:49;;;;;;;2.25;1.80;;;9.90;99.90;;;;;;6161716;23;20112;-91
2021/12/28 10:44:17;;;;;;;1.83;1.58;;;9.90;99.90;;;;;;6185890;23;19997;-91
2021/12/28 10:46:45;;;;;;;2.05;1.85;;;9.90;99.90;;;;;;6186149;23;20083;-90
2021/12/28 10:50:00;;;;;;;2.75;1.80;;;9.90;99.90;;;;;;6185513;23;20008;-90
2021/12/28 10:52:38;;;;;;;2.88;1.90;;;10.00;99.90;;;;;;6184527;23;20360;-91
2021/12/28 10:55:33;;;;;;;3.13;1.80;;;10.00;99.90;;;;;;6185807;23;20009;-90
2021/12/28 10:58:03;;;;;;;2.58;2.10;;;10.00;99.90;;;;;;6160882;23;20009;-91
2021/12/28 11:00:33;;;;;;;2.20;1.98;;;10.00;99.90;;;;;;6185428;23;20096;-91
2021/12/28 11:03:33;;;;;;;;;;;;;;;;;;;;;
2021/12/28 11:06:27;;;;;;;2.10;1.90;;;10.00;99.90;;;;;;6187218;23;20092;-90
2021/12/28 11:09:06;;;;;;;2.17;1.98;;;10.00;99.90;;;;;;6185554;23;20005;-90
2021/12/28 11:11:38;;;;;;;2.38;2.17;;;10.00;99.90;;;;;;6185695;23;20319;-91
2021/12/28 11:17:06;;;;;;;2.45;2.25;;;10.00;99.90;;;;;;6187069;23;20001;-90
2021/12/28 11:19:52;;;;;;;2.35;2.10;;;10.10;99.90;;;;;;6161416;23;20008;-91
2021/12/28 11:22:27;;;;;;;2.63;2.17;;;10.10;99.90;;;;;;6162185;23;20009;-91
2021/12/28 11:25:02;;;;;;;;;;;;;;;;;;;;;
2021/12/28 11:27:42;;;;;;;;;;;;;;;;;;;;;
2021/12/28 11:30:15;;;;;;;2.50;2.15;;;10.10;99.90;;;;;;6187418;23;20092;-91
2021/12/28 11:32:53;;;;;;;;;;;;;;;;;;;;;
2021/12/28 11:35:24;;;;;;;3.70;2.70;;;10.10;99.90;;;;;;6187287;23;20088;-90
2021/12/28 11:37:50;;;;;;;4.22;2.95;;;10.10;99.90;;;;;;6160907;23;20009;-91
2021/12/28 11:40:19;;;;;;;4.18;3.47;;;10.20;99.90;;;;;;6185689;23;20011;-92
2021/12/28 11:43:14;;;;;;;9.40;5.45;;;10.10;99.90;;;;;;6184872;23;20041;-91
2021/12/28 11:49:18;;;;;;;5.07;2.88;;;10.20;99.90;;;;;;6186896;23;20005;-90
2021/12/28 11:55:45;;;;;;;2.97;2.47;;;10.20;99.90;;;;;;6120347;23;20009;-89
2021/12/28 11:58:17;;;;;;;2.72;2.30;;;10.20;99.90;;;;;;6188352;23;20038;-91
2021/12/28 12:00:57;;;;;;;3.22;2.53;;;10.20;99.90;;;;;;6188794;23;20009;-92
2021/12/28 12:03:43;;;;;;;3.38;2.63;;;10.20;99.90;;;;;;6166189;23;20005;-91
2021/12/28 12:06:16;;;;;;;3.13;2.70;;;10.20;99.90;;;;;;6193490;23;20013;-91
2021/12/28 12:09:25;;;;;;;2.65;2.45;;;10.20;99.90;;;;;;6164962;23;19997;-91
2021/12/28 12:12:16;;;;;;;3.58;2.38;;;10.30;99.90;;;;;;6211914;23;20024;-92
2021/12/28 12:15:11;;;;;;;;;;;;;;;;;;;;;
2021/12/28 12:17:58;;;;;;;2.58;2.30;;;10.20;99.90;;;;;;6200473;23;20028;-91
2021/12/28 12:23:31;;;;;;;2.05;1.80;;;10.20;99.90;;;;;;6178305;23;20066;-89
2021/12/28 12:26:40;;;;;;;2.08;1.88;;;10.20;99.90;;;;;;6186955;23;20392;-90
2021/12/28 12:29:20;;;;;;;2.17;1.50;;;10.30;99.90;;;;;;6187327;23;20005;-90
2021/12/28 12:32:06;;;;;;;1.38;1.27;;;10.30;99.90;;;;;;6186588;23;20021;-90
2021/12/28 12:35:06;;;;;;;1.45;1.35;;;10.30;99.90;;;;;;6186976;23;20005;-90
2021/12/28 12:37:50;;;;;;;2.13;1.83;;;10.30;99.90;;;;;;6166644;23;20009;-89
2021/12/28 12:40:21;;;;;;;1.75;1.30;;;10.30;99.90;;;;;;6187340;23;20023;-92
2021/12/28 12:43:22;;;;;;;3.58;1.75;;;10.30;99.90;;;;;;6186616;23;20005;-90
2021/12/28 12:46:04;;;;;;;4.75;1.45;;;10.20;99.90;;;;;;6130416;23;20020;-90
2021/12/28 12:49:02;;;;;;;;;;;;;;;;;;;;;
2021/12/28 12:52:05;;;;;;;5.78;2.20;;;10.10;99.90;;;;;;6188144;23;20049;-90
2021/12/28 12:54:54;;;;;;;;;;;;;;;;;;;;;
2021/12/28 12:57:40;;;;;;;4.45;2.10;;;10.10;99.90;;;;;;6188505;23;20085;-91
2021/12/28 13:00:41;;;;;;;5.85;2.20;;;10.10;99.90;;;;;;6186577;23;20009;-91
2021/12/28 13:03:07;;;;;;;7.50;2.08;;;10.10;99.90;;;;;;6187633;23;20031;-90
2021/12/28 13:05:43;;;;;;;9.13;2.30;;;10.10;99.90;;;;;;6187879;23;20017;-90
2021/12/28 13:08:15;;;;;;;10.18;2.60;;;10.00;99.90;;;;;;6187164;23;20008;-89
2021/12/28 13:10:44;;;;;;;12.13;2.80;;;10.00;99.90;;;;;;6163390;23;20084;-87
2021/12/28 13:13:21;;;;;;;10.55;3.42;;;10.00;99.90;;;;;;6162946;23;20027;-89
2021/12/28 13:15:57;;;;;;;13.80;3.42;;;10.00;99.90;;;;;;6187700;23;20009;-89
2021/12/28 13:18:24;;;;;;;10.23;3.35;;;10.00;99.90;;;;;;6187277;23;20076;-92
2021/12/28 13:21:05;;;;;;;11.52;3.13;;;9.90;99.90;;;;;;6186464;23;20005;-90
2021/12/28 13:23:36;;;;;;;14.88;2.85;;;9.90;99.90;;;;;;6163555;23;20040;-89
2021/12/28 13:26:05;;;;;;;9.90;2.50;;;9.90;99.90;;;;;;6162674;23;20036;-90
2021/12/28 13:28:49;;;;;;;;;;;;;;;;;;;;;
2021/12/28 13:31:54;;;;;;;;;;;;;;;;;;;;;
2021/12/28 13:34:20;;;;;;;18.67;3.60;;;10.00;99.90;;;;;;6188309;23;20534;-90
2021/12/28 13:37:12;;;;;;;15.85;3.58;;;10.00;99.90;;;;;;6186960;23;20033;-89
2021/12/28 13:40:00;;;;;;;;;;;10.10;99.90;;;;;;6188593;23;20091;-89
2021/12/28 13:42:48;;;;;;;16.05;5.25;;;10.10;99.90;;;;;;6189335;23;19884;-90
2021/12/28 13:45:33;;;;;;;13.75;4.20;;;10.10;99.90;;;;;;6212441;23;20020;-90
2021/12/28 13:48:26;;;;;;;18.40;3.80;;;10.10;99.90;;;;;;6213421;23;19993;-89
2021/12/28 13:51:05;;;;;;;11.85;3.55;;;10.10;99.90;;;;;;6213089;23;20464;-89
2021/12/28 13:53:41;;;;;;;17.60;4.03;;;10.10;99.90;;;;;;6214372;23;19993;-91
2021/12/28 13:56:43;;;;;;;19.77;4.35;;;10.10;99.90;;;;;;6200704;23;20340;-90
2021/12/28 13:59:34;;;;;;;19.42;5.22;;;10.20;99.90;;;;;;6124893;23;20001;-90
2021/12/28 14:02:12;;;;;;;;;;;;;;;;;;;;;
2021/12/28 14:04:43;;;;;;;18.77;4.57;;;10.20;99.90;;;;;;6186458;23;20092;-89
2021/12/28 14:07:20;;;;;;;20.95;4.50;;;10.20;99.90;;;;;;6186381;23;20001;-91
2021/12/28 14:13:11;;;;;;;18.75;4.28;;;10.20;99.90;;;;;;6158692;23;20009;-90
2021/12/28 14:15:53;;;;;;;21.45;4.55;;;10.20;99.90;;;;;;6185890;23;20005;-90
2021/12/28 14:18:55;;;;;;;22.52;5.45;;;10.20;99.90;;;;;;6185821;23;20001;-89
2021/12/28 14:24:20;;;;;;;21.83;4.57;;;10.20;99.90;;;;;;6181265;23;20084;-90
2021/12/28 14:29:38;;;;;;;16.02;3.42;;;10.20;99.90;;;;;;6171310;23;20012;-90
2021/12/28 14:32:14;;;;;;;13.23;2.90;;;10.10;99.90;;;;;;6184798;23;20021;-88
2021/12/28 14:34:59;;;;;;;;;;;;;;;;;;;;;
2021/12/28 14:37:43;;;;;;;;;;;;;;;;;;;;;
2021/12/28 14:40:27;;;;;;;;;;;;;;;;;;;;;
2021/12/28 14:43:08;;;;;;;14.70;3.58;;;9.90;99.90;;;;;;6188048;23;20096;-94
2021/12/28 14:45:45;;;;;;;16.35;3.47;;;9.90;99.90;;;;;;6186701;23;20040;-95
2021/12/28 14:48:32;;;;;;;;;;;;;;;;;;;;;
2021/12/28 14:54:12;;;;;;;18.83;4.30;;;9.80;99.90;;;;;;6172842;23;20002;-94
2021/12/28 14:56:53;;;;;;;16.67;3.90;;;9.70;99.90;;;;;;6167791;23;20379;-92
2021/12/28 14:59:44;;;;;;;18.60;4.22;;;9.70;99.90;;;;;;6187972;23;20080;-91
2021/12/28 15:02:31;;;;;;;;;;;;;;;;;;;;;
2021/12/28 15:05:06;;;;;;;12.55;2.85;;;9.70;99.90;;;;;;6187416;23;20089;-93
2021/12/28 15:07:35;;;;;;;13.93;4.13;;;9.60;99.90;;;;;;6186424;23;20092;-94
2021/12/28 15:10:10;;;;;;;17.75;4.13;;;9.70;99.90;;;;;;6185909;23;20008;-93
2021/12/28 15:12:45;;;;;;;13.70;3.35;;;9.70;99.90;;;;;;6186318;23;20005;-91
2021/12/28 15:15:52;;;;;;;19.00;3.58;;;9.70;99.90;;;;;;6158930;23;20013;-95
2021/12/28 15:18:31;;;;;;;12.20;2.85;;;9.60;99.90;;;;;;6186138;23;20005;-93
2021/12/28 15:21:11;;;;;;;;;;;;;;;;;;;;;
2021/12/28 15:24:51;;;;;;;13.38;3.00;;;9.60;99.90;;;;;;6213622;23;19992;-94
2021/12/28 15:28:01;;;;;;;15.90;3.05;;;9.60;99.90;;;;;;6213377;23;20021;-93
2021/12/28 15:34:12;;;;;;;9.98;2.85;;;9.60;99.90;;;;;;6146124;23;20096;-93
2021/12/28 15:36:53;;;;;;;;;;;;;;;;;;;;;